createdAt,value
2022-11-29T00:01:41.245Z,6.68
2022-11-29T00:04:09.328Z,6.55
2022-11-29T00:06:37.440Z,6.72
2022-11-29T00:09:09.351Z,6.79
2022-11-29T00:11:58.209Z,6.57
2022-11-29T00:14:27.870Z,7.02
2022-11-29T00:17:03.261Z,6.64
2022-11-29T00:19:35.527Z,6.62
2022-11-29T00:22:04.591Z,6.83
2022-11-29T00:24:33.008Z,6.56
2022-11-29T00:27:01.193Z,6.74
2022-11-29T00:29:30.106Z,6.65
2022-11-29T00:31:57.555Z,6.82
2022-11-29T00:34:25.127Z,6.87
2022-11-29T00:36:52.714Z,6.78
2022-11-29T00:39:20.385Z,6.68
2022-11-29T00:41:47.902Z,6.39
2022-11-29T00:44:19.917Z,6.42
2022-11-29T00:46:48.849Z,6.40
2022-11-29T00:49:16.574Z,6.34
2022-11-29T00:51:44.151Z,6.52
2022-11-29T00:54:11.762Z,6.50
2022-11-29T00:56:39.342Z,6.63
2022-11-29T00:59:06.861Z,6.49
2022-11-29T01:01:34.379Z,6.46
2022-11-29T01:04:03.155Z,6.75
2022-11-29T01:06:30.611Z,6.74
2022-11-29T01:08:58.265Z,6.65
2022-11-29T01:11:28.496Z,6.62
2022-11-29T01:13:59.518Z,6.54
2022-11-29T01:16:30.146Z,6.62
2022-11-29T01:18:57.889Z,6.94
2022-11-29T01:21:26.057Z,6.68
2022-11-29T01:23:54.573Z,6.68
2022-11-29T01:26:26.597Z,6.55
2022-11-29T01:28:56.850Z,6.19
2022-11-29T01:31:32.468Z,6.22
2022-11-29T01:34:03.889Z,6.49
2022-11-29T01:36:31.597Z,6.60
2022-11-29T01:39:04.025Z,6.50
2022-11-29T01:41:36.748Z,6.58
2022-11-29T01:44:28.505Z,6.77
2022-11-29T01:46:57.914Z,6.54
2022-11-29T01:49:37.589Z,6.56
2022-11-29T01:52:24.410Z,6.62
2022-11-29T01:54:57.821Z,6.73
2022-11-29T01:57:26.857Z,6.63
2022-11-29T02:00:07.503Z,6.24
2022-11-29T02:03:11.790Z,6.33
2022-11-29T02:05:48.137Z,6.17
2022-11-29T02:08:50.565Z,6.46
2022-11-29T02:11:45.904Z,6.40
2022-11-29T02:14:27.302Z,6.27
2022-11-29T02:17:37.606Z,6.46
2022-11-29T02:20:58.804Z,6.47
2022-11-29T02:24:11.743Z,6.46
2022-11-29T02:27:37.007Z,6.44
2022-11-29T02:30:44.472Z,6.16
2022-11-29T02:37:28.551Z,6.24
2022-11-29T02:40:13.907Z,6.19
2022-11-29T02:43:18.815Z,6.51
2022-11-29T02:46:17.162Z,6.93
2022-11-29T02:49:40.864Z,6.52
2022-11-29T02:52:46.727Z,6.46
2022-11-29T02:55:36.369Z,6.45
2022-11-29T02:58:36.331Z,6.45
2022-11-29T03:04:29.018Z,6.86
2022-11-29T03:07:09.773Z,6.54
2022-11-29T03:10:04.541Z,6.49
2022-11-29T03:12:41.282Z,6.54
2022-11-29T03:15:14.917Z,6.69
2022-11-29T03:18:20.192Z,6.31
2022-11-29T03:21:16.880Z,6.80
2022-11-29T03:23:50.399Z,6.90
2022-11-29T03:26:40.359Z,7.13
2022-11-29T03:29:38.289Z,6.50
2022-11-29T03:33:08.808Z,6.15
2022-11-29T03:36:07.071Z,6.57
2022-11-29T03:38:45.113Z,6.45
2022-11-29T03:41:41.517Z,6.55
2022-11-29T03:44:27.530Z,6.54
2022-11-29T03:47:15.042Z,6.48
2022-11-29T03:50:07.063Z,6.65
2022-11-29T03:53:04.013Z,6.49
2022-11-29T03:55:46.322Z,6.55
2022-11-29T03:58:34.828Z,6.58
2022-11-29T04:01:22.470Z,6.69
2022-11-29T04:04:36.974Z,6.32
2022-11-29T04:07:34.741Z,6.28
2022-11-29T04:10:48.586Z,6.10
2022-11-29T04:13:47.070Z,6.12
2022-11-29T04:16:45.245Z,6.31
2022-11-29T04:19:59.010Z,6.11
2022-11-29T04:22:32.104Z,6.60
2022-11-29T04:25:47.578Z,6.54
2022-11-29T04:28:52.706Z,6.67
2022-11-29T04:31:53.380Z,6.23
2022-11-29T04:34:32.712Z,6.19
2022-11-29T04:37:13.802Z,6.27
2022-11-29T04:40:22.641Z,6.29
2022-11-29T04:42:59.423Z,6.24
2022-11-29T04:45:59.369Z,6.40
2022-11-29T04:49:05.778Z,6.60
2022-11-29T04:51:53.669Z,6.49
2022-11-29T04:55:23.820Z,6.18
2022-11-29T04:58:10.294Z,6.49
2022-11-29T05:01:12.324Z,6.49
2022-11-29T05:04:01.716Z,6.27
2022-11-29T05:07:08.237Z,6.64
2022-11-29T05:09:59.664Z,6.28
2022-11-29T05:13:03.850Z,6.48
2022-11-29T05:16:00.831Z,6.64
2022-11-29T05:19:17.361Z,6.65
2022-11-29T05:22:12.543Z,6.59
2022-11-29T05:25:37.023Z,6.97
2022-11-29T05:28:20.532Z,6.86
2022-11-29T05:31:32.416Z,6.80
2022-11-29T05:34:20.626Z,6.53
2022-11-29T05:37:02.871Z,6.78
2022-11-29T05:39:57.689Z,6.47
2022-11-29T05:43:01.409Z,6.77
2022-11-29T05:45:59.861Z,7.19
2022-11-29T05:48:54.069Z,6.64
2022-11-29T05:52:00.801Z,6.46
2022-11-29T05:54:41.086Z,6.75
2022-11-29T05:57:47.431Z,6.65
2022-11-29T06:00:17.424Z,6.57
2022-11-29T06:03:24.315Z,6.57
2022-11-29T06:06:08.234Z,6.68
2022-11-29T06:09:16.281Z,6.81
2022-11-29T06:11:50.930Z,6.73
2022-11-29T06:15:02.758Z,6.49
2022-11-29T06:18:25.879Z,6.29
2022-11-29T06:21:26.411Z,6.94
2022-11-29T06:23:59.254Z,6.83
2022-11-29T06:26:56.144Z,6.79
2022-11-29T06:29:35.200Z,6.66
2022-11-29T06:32:26.933Z,6.80
2022-11-29T06:35:12.014Z,6.92
2022-11-29T06:37:46.277Z,7.01
2022-11-29T06:40:16.719Z,6.83
2022-11-29T06:42:44.868Z,6.66
2022-11-29T06:45:15.963Z,6.83
2022-11-29T06:47:52.882Z,6.95
2022-11-29T06:50:38.545Z,7.01
2022-11-29T06:53:55.445Z,7.25
2022-11-29T06:57:04.043Z,7.07
2022-11-29T06:59:40.234Z,7.11
2022-11-29T07:02:55.571Z,6.92
2022-11-29T07:05:32.730Z,7.27
2022-11-29T07:08:14.879Z,7.05
2022-11-29T07:10:44.381Z,6.97
2022-11-29T07:13:16.405Z,7.10
2022-11-29T07:16:28.686Z,6.96
2022-11-29T07:19:27.581Z,7.32
2022-11-29T07:31:54.877Z,7.23
2022-11-29T07:34:33.990Z,7.47
2022-11-29T07:37:37.799Z,7.40
2022-11-29T07:40:23.046Z,7.57
2022-11-29T07:43:34.577Z,7.19
2022-11-29T07:46:02.547Z,7.42
2022-11-29T07:48:30.118Z,7.01
2022-11-29T07:50:58.019Z,7.03
2022-11-29T07:53:25.750Z,7.21
2022-11-29T07:55:53.342Z,7.27
2022-11-29T07:58:21.199Z,7.54
2022-11-29T08:00:48.709Z,7.38
2022-11-29T08:03:16.231Z,7.21
2022-11-29T08:05:47.696Z,7.40
2022-11-29T08:08:16.159Z,7.46
2022-11-29T08:10:46.050Z,7.23
2022-11-29T08:13:14.613Z,7.41
2022-11-29T08:15:49.478Z,7.38
2022-11-29T08:18:17.671Z,7.45
2022-11-29T08:20:46.331Z,7.40
2022-11-29T08:23:14.748Z,7.32
2022-11-29T08:25:42.643Z,7.59
2022-11-29T08:28:10.696Z,7.45
2022-11-29T08:30:39.146Z,7.20
2022-11-29T08:33:07.191Z,7.29
2022-11-29T08:35:37.019Z,7.54
2022-11-29T08:38:05.067Z,7.54
2022-11-29T08:40:32.803Z,7.72
2022-11-29T08:43:00.348Z,7.57
2022-11-29T08:45:27.929Z,7.56
2022-11-29T08:47:55.746Z,7.38
2022-11-29T08:50:23.400Z,7.27
2022-11-29T08:53:09.791Z,7.72
2022-11-29T08:55:42.936Z,8.08
2022-11-29T08:58:14.669Z,7.77
2022-11-29T09:00:46.426Z,7.46
2022-11-29T09:03:32.587Z,7.23
2022-11-29T09:06:12.642Z,7.10
2022-11-29T09:08:43.789Z,7.42
2022-11-29T09:11:22.502Z,7.75
2022-11-29T09:13:54.008Z,8.00
2022-11-29T09:16:25.724Z,7.90
2022-11-29T09:18:56.386Z,7.58
2022-11-29T09:21:29.441Z,7.44
2022-11-29T09:24:02.547Z,7.67
2022-11-29T09:26:34.321Z,7.86
2022-11-29T09:29:05.051Z,7.88
2022-11-29T09:31:33.498Z,8.05
2022-11-29T09:34:01.312Z,7.68
2022-11-29T09:36:31.419Z,7.85
2022-11-29T09:39:02.675Z,7.97
2022-11-29T09:42:22.413Z,7.80
2022-11-29T09:45:12.371Z,8.12
2022-11-29T09:48:09.528Z,8.42
2022-11-29T09:51:03.573Z,8.51
2022-11-29T09:54:16.535Z,8.35
2022-11-29T09:56:55.778Z,8.30
2022-11-29T09:59:52.357Z,8.01
2022-11-29T10:02:47.904Z,8.09
2022-11-29T10:05:28.823Z,8.01
2022-11-29T10:08:15.908Z,8.07
2022-11-29T10:10:49.908Z,8.20
2022-11-29T10:13:33.009Z,8.67
2022-11-29T10:16:30.131Z,8.27
2022-11-29T10:19:15.622Z,8.40
2022-11-29T10:22:00.859Z,8.20
2022-11-29T10:24:30.399Z,8.73
2022-11-29T10:26:59.150Z,8.58
2022-11-29T10:29:27.265Z,8.74
2022-11-29T10:31:56.856Z,8.46
2022-11-29T10:34:26.895Z,8.32
2022-11-29T10:37:02.720Z,8.23
2022-11-29T10:39:39.858Z,8.37
2022-11-29T10:42:40.267Z,8.58
2022-11-29T10:45:35.663Z,8.57
2022-11-29T10:48:10.144Z,8.49
2022-11-29T10:50:38.685Z,8.74
2022-11-29T10:53:20.988Z,8.57
2022-11-29T10:56:00.943Z,8.78
2022-11-29T10:58:30.805Z,8.74
2022-11-29T11:01:01.259Z,8.65
2022-11-29T11:03:53.154Z,8.67
2022-11-29T11:06:23.793Z,8.60
2022-11-29T11:09:16.072Z,8.95
2022-11-29T11:11:59.600Z,8.64
2022-11-29T11:14:38.856Z,8.72
2022-11-29T11:17:30.267Z,8.27
2022-11-29T11:20:23.129Z,8.14
2022-11-29T11:23:20.183Z,8.13
2022-11-29T11:25:50.719Z,8.30
2022-11-29T11:28:31.452Z,8.56
2022-11-29T11:31:11.250Z,8.52
2022-11-29T11:33:46.613Z,8.59
2022-11-29T11:36:24.275Z,8.57
2022-11-29T11:39:12.597Z,8.18
2022-11-29T11:42:02.182Z,8.09
2022-11-29T11:44:49.317Z,8.13
2022-11-29T11:47:22.132Z,8.28
2022-11-29T11:50:02.622Z,8.50
2022-11-29T11:52:40.702Z,8.35
2022-11-29T11:55:38.080Z,8.51
2022-11-29T11:58:48.091Z,8.56
2022-11-29T12:01:38.613Z,8.37
2022-11-29T12:04:22.734Z,8.91
2022-11-29T12:07:01.308Z,8.98
2022-11-29T12:09:40.952Z,8.62
2022-11-29T12:12:43.694Z,8.50
2022-11-29T12:15:36.197Z,8.58
2022-11-29T12:18:16.564Z,8.36
2022-11-29T12:21:17.579Z,8.19
2022-11-29T12:24:18.833Z,8.27
2022-11-29T12:26:56.903Z,8.18
2022-11-29T12:29:30.078Z,8.69
2022-11-29T12:32:00.170Z,8.54
2022-11-29T12:34:52.510Z,8.45
2022-11-29T12:37:35.999Z,8.64
2022-11-29T12:40:26.853Z,8.93
2022-11-29T12:43:27.172Z,8.91
2022-11-29T12:46:15.288Z,9.01
2022-11-29T12:49:09.849Z,8.98
2022-11-29T12:52:07.270Z,8.71
2022-11-29T12:54:41.511Z,8.93
2022-11-29T12:57:39.185Z,8.79
2022-11-29T13:00:17.205Z,8.41
2022-11-29T13:03:06.756Z,8.44
2022-11-29T13:05:41.531Z,8.32
2022-11-29T13:08:36.357Z,8.17
2022-11-29T13:11:09.180Z,8.27
2022-11-29T13:14:45.391Z,8.43
2022-11-29T13:17:54.455Z,8.29
2022-11-29T13:20:42.909Z,8.37
2022-11-29T13:23:16.080Z,8.25
2022-11-29T13:25:50.768Z,8.59
2022-11-29T13:28:30.418Z,8.51
2022-11-29T13:31:07.785Z,8.50
2022-11-29T13:33:59.113Z,8.54
2022-11-29T13:37:07.619Z,8.50
2022-11-29T13:40:01.586Z,8.35
2022-11-29T13:42:47.059Z,8.19
2022-11-29T13:46:01.704Z,8.82
2022-11-29T13:48:29.126Z,8.74
2022-11-29T13:51:24.360Z,8.65
2022-11-29T13:53:53.663Z,8.68
2022-11-29T13:56:46.591Z,8.41
2022-11-29T13:59:28.438Z,8.29
2022-11-29T14:01:58.475Z,8.33
2022-11-29T14:04:39.160Z,8.50
2022-11-29T14:07:19.577Z,8.33
2022-11-29T14:10:07.440Z,8.24
2022-11-29T14:12:53.589Z,8.41
2022-11-29T14:15:28.402Z,8.57
2022-11-29T14:18:02.421Z,8.95
2022-11-29T14:20:29.856Z,8.74
2022-11-29T14:23:06.424Z,8.81
2022-11-29T14:25:56.169Z,8.50
2022-11-29T14:28:23.638Z,8.65
2022-11-29T14:30:57.193Z,8.38
2022-11-29T14:33:46.194Z,8.58
2022-11-29T14:36:20.443Z,8.30
2022-11-29T14:39:28.369Z,8.02
2022-11-29T14:42:19.788Z,8.29
2022-11-29T14:45:04.844Z,8.31
2022-11-29T14:47:37.396Z,8.32
2022-11-29T14:50:24.456Z,8.80
2022-11-29T14:52:55.219Z,8.77
2022-11-29T14:55:38.720Z,8.65
2022-11-29T14:58:20.474Z,8.41
2022-11-29T15:00:56.459Z,8.88
2022-11-29T15:03:37.104Z,8.76
2022-11-29T15:06:18.393Z,8.58
2022-11-29T15:09:19.347Z,8.53
2022-11-29T15:12:24.684Z,8.94
2022-11-29T15:15:26.313Z,8.45
2022-11-29T15:18:55.886Z,8.64
2022-11-29T15:21:56.925Z,8.41
2022-11-29T15:24:28.716Z,8.48
2022-11-29T15:27:03.950Z,8.52
2022-11-29T15:29:32.174Z,8.08
2022-11-29T15:32:06.070Z,8.19
2022-11-29T15:34:41.252Z,8.17
2022-11-29T15:37:34.393Z,8.20
2022-11-29T15:40:12.642Z,8.37
2022-11-29T15:42:55.129Z,8.13
2022-11-29T15:45:33.457Z,8.15
2022-11-29T15:48:20.723Z,8.16
2022-11-29T15:51:37.098Z,8.22
2022-11-29T15:54:53.293Z,8.33
2022-11-29T15:57:48.728Z,9.07
2022-11-29T16:00:23.209Z,8.98
2022-11-29T16:03:28.387Z,8.97
2022-11-29T16:06:34.699Z,8.66
2022-11-29T16:09:04.540Z,8.55
2022-11-29T16:11:35.051Z,8.40
2022-11-29T16:14:14.824Z,8.12
2022-11-29T16:16:46.793Z,8.46
2022-11-29T16:19:29.867Z,8.60
2022-11-29T16:22:17.655Z,8.49
2022-11-29T16:24:57.591Z,8.30
2022-11-29T16:27:31.915Z,8.13
2022-11-29T16:30:08.028Z,8.13
2022-11-29T16:32:42.464Z,7.96
2022-11-29T16:35:34.669Z,7.81
2022-11-29T16:38:07.597Z,7.78
2022-11-29T16:40:39.228Z,7.93
2022-11-29T16:43:27.135Z,8.04
2022-11-29T16:46:26.770Z,8.26
2022-11-29T16:49:00.154Z,8.32
2022-11-29T16:51:40.134Z,8.09
2022-11-29T16:54:34.404Z,8.54
2022-11-29T16:57:06.276Z,8.28
2022-11-29T16:59:42.969Z,8.35
2022-11-29T17:02:17.600Z,8.53
2022-11-29T17:04:48.061Z,8.37
2022-11-29T17:07:33.367Z,8.49
2022-11-29T17:10:04.503Z,8.30
2022-11-29T17:12:32.188Z,8.24
2022-11-29T17:15:00.922Z,8.14
2022-11-29T17:17:29.965Z,8.23
2022-11-29T17:19:59.466Z,8.54
2022-11-29T17:22:29.271Z,8.48
2022-11-29T17:24:58.262Z,8.51
2022-11-29T17:27:25.849Z,8.27
2022-11-29T17:29:53.298Z,8.16
2022-11-29T17:32:26.527Z,8.22
2022-11-29T17:34:54.711Z,8.39
2022-11-29T17:37:23.456Z,8.46
2022-11-29T17:39:52.185Z,8.43
2022-11-29T17:42:21.687Z,8.27
2022-11-29T17:45:09.883Z,8.27
2022-11-29T17:47:38.338Z,8.32
2022-11-29T17:50:06.790Z,8.69
2022-11-29T17:52:35.590Z,8.94
2022-11-29T17:55:06.714Z,8.70
2022-11-29T17:57:34.299Z,8.59
2022-11-29T18:00:06.239Z,8.78
2022-11-29T18:02:35.085Z,8.55
2022-11-29T18:05:02.699Z,8.51
2022-11-29T18:07:33.388Z,8.66
2022-11-29T18:10:02.532Z,8.49
2022-11-29T18:12:31.190Z,8.78
2022-11-29T18:15:08.806Z,8.77
2022-11-29T18:17:36.452Z,8.78
2022-11-29T18:20:05.532Z,8.58
2022-11-29T18:22:35.151Z,8.69
2022-11-29T18:25:36.804Z,8.42
2022-11-29T18:28:02.010Z,8.52
2022-11-29T18:30:30.205Z,8.38
2022-11-29T18:32:58.203Z,8.42
2022-11-29T18:35:30.373Z,8.45
2022-11-29T18:38:15.149Z,8.22
2022-11-29T18:40:50.093Z,8.39
2022-11-29T18:43:26.318Z,8.50
2022-11-29T18:45:57.381Z,8.38
2022-11-29T18:48:34.170Z,8.28
2022-11-29T18:51:17.368Z,8.21
2022-11-29T18:53:45.898Z,8.31
2022-11-29T18:56:18.995Z,8.39
2022-11-29T18:59:23.251Z,8.73
2022-11-29T19:01:53.520Z,8.80
2022-11-29T19:04:25.341Z,8.63
2022-11-29T19:06:54.437Z,8.47
2022-11-29T19:09:23.655Z,8.46
2022-11-29T19:11:55.457Z,8.21
2022-11-29T19:14:23.634Z,8.49
2022-11-29T19:16:51.432Z,8.53
2022-11-29T19:19:19.272Z,8.39
2022-11-29T19:21:49.255Z,8.69
2022-11-29T19:24:18.908Z,8.59
2022-11-29T19:26:49.843Z,8.64
2022-11-29T19:29:18.167Z,8.48
2022-11-29T19:31:48.585Z,8.46
2022-11-29T19:34:17.146Z,8.36
2022-11-29T19:36:47.063Z,8.43
2022-11-29T19:39:17.755Z,8.45
2022-11-29T19:41:48.461Z,8.45
2022-11-29T19:44:16.519Z,8.41
2022-11-29T19:46:53.630Z,8.62
2022-11-29T19:49:21.562Z,8.57
2022-11-29T19:51:50.307Z,8.77
2022-11-29T19:54:18.705Z,9.01
2022-11-29T19:56:46.542Z,8.53
2022-11-29T19:59:16.190Z,8.48
2022-11-29T20:01:43.979Z,8.53
2022-11-29T20:04:13.822Z,8.79
2022-11-29T20:06:42.695Z,8.77
2022-11-29T20:09:12.103Z,8.42
2022-11-29T20:11:41.047Z,8.27
2022-11-29T20:14:10.989Z,8.26
2022-11-29T20:16:39.325Z,8.67
2022-11-29T20:19:17.000Z,8.80
2022-11-29T20:21:49.003Z,8.46
2022-11-29T20:24:18.105Z,8.38
2022-11-29T20:26:48.323Z,8.49
2022-11-29T20:29:17.015Z,8.38
2022-11-29T20:31:50.656Z,8.70
2022-11-29T20:34:20.442Z,8.68
2022-11-29T20:37:21.369Z,8.72
2022-11-29T20:40:03.343Z,8.53
2022-11-29T20:43:19.533Z,8.52
2022-11-29T20:45:47.647Z,8.46
2022-11-29T20:48:22.075Z,8.36
2022-11-29T20:50:59.640Z,8.36
2022-11-29T20:53:33.723Z,8.31
2022-11-29T20:56:02.512Z,8.42
2022-11-29T20:58:30.545Z,8.59
2022-11-29T21:00:58.739Z,8.56
2022-11-29T21:03:28.028Z,8.45
2022-11-29T21:05:56.949Z,8.53
2022-11-29T21:08:27.013Z,8.47
2022-11-29T21:10:55.122Z,8.45
2022-11-29T21:13:24.252Z,8.37
2022-11-29T21:15:56.637Z,8.60
2022-11-29T21:18:29.596Z,8.61
2022-11-29T21:21:41.753Z,8.54
2022-11-29T21:24:42.536Z,8.58
2022-11-29T21:27:18.043Z,8.59
2022-11-29T21:29:48.558Z,8.75
2022-11-29T21:32:25.886Z,8.60
2022-11-29T21:34:53.899Z,8.91
2022-11-29T21:37:27.544Z,8.60
2022-11-29T21:39:56.172Z,8.73
2022-11-29T21:42:24.210Z,8.32
2022-11-29T21:44:51.647Z,8.54
2022-11-29T21:47:19.093Z,8.52
2022-11-29T21:49:46.896Z,8.45
2022-11-29T21:52:20.707Z,8.41
2022-11-29T21:54:50.118Z,8.21
2022-11-29T21:57:17.600Z,8.22
2022-11-29T21:59:45.839Z,8.44
2022-11-29T22:02:13.628Z,8.54
2022-11-29T22:04:41.118Z,8.44
2022-11-29T22:07:09.843Z,8.44
2022-11-29T22:09:37.499Z,8.51
2022-11-29T22:12:25.773Z,8.55
2022-11-29T22:14:52.867Z,8.50
2022-11-29T22:17:20.265Z,8.85
2022-11-29T22:19:47.855Z,8.60
2022-11-29T22:22:15.379Z,8.49
2022-11-29T22:24:43.114Z,8.64
2022-11-29T22:27:10.540Z,8.35
2022-11-29T22:29:38.077Z,8.49
2022-11-29T22:32:06.249Z,8.59
2022-11-29T22:34:33.753Z,8.60
2022-11-29T22:37:01.288Z,8.56
2022-11-29T22:39:28.725Z,8.52
2022-11-29T22:41:56.213Z,8.53
2022-11-29T22:44:24.815Z,8.48
2022-11-29T22:46:52.605Z,8.42
2022-11-29T22:49:20.499Z,8.75
2022-11-29T22:51:48.061Z,8.88
2022-11-29T22:54:16.593Z,8.65
2022-11-29T22:56:45.731Z,8.48
2022-11-29T22:59:13.664Z,8.38
2022-11-29T23:01:43.014Z,8.45
2022-11-29T23:04:12.401Z,8.52
2022-11-29T23:06:45.831Z,8.34
2022-11-29T23:09:21.736Z,8.53
2022-11-29T23:11:55.850Z,8.32
2022-11-29T23:14:23.950Z,8.42
2022-11-29T23:16:52.002Z,8.45
2022-11-29T23:19:20.151Z,8.21
2022-11-29T23:21:47.969Z,8.15
2022-11-29T23:24:16.391Z,8.20
2022-11-29T23:26:46.995Z,8.10
2022-11-29T23:29:18.593Z,8.31
2022-11-29T23:31:46.946Z,8.37
2022-11-29T23:34:15.348Z,8.19
2022-11-29T23:36:46.887Z,8.35
2022-11-29T23:39:17.248Z,8.27
2022-11-29T23:41:44.770Z,8.44
2022-11-29T23:44:12.488Z,8.36
2022-11-29T23:46:39.983Z,8.33
2022-11-29T23:49:07.488Z,8.23
2022-11-29T23:51:34.977Z,8.34
2022-11-29T23:54:02.561Z,8.35
2022-11-29T23:56:35.160Z,8.56
2022-11-29T23:59:03.081Z,8.75
